createdAt,value
2018-12-15T00:02:05.525Z,119.60
2018-12-15T00:04:34.631Z,125.63
2018-12-15T00:07:03.710Z,125.47
2018-12-15T00:09:32.788Z,134.90
2018-12-15T00:12:01.889Z,134.40
2018-12-15T00:14:30.971Z,132.07
2018-12-15T00:17:05.545Z,132.93
2018-12-15T00:19:29.196Z,135.87
2018-12-15T00:21:58.498Z,137.57
2018-12-15T00:24:27.343Z,137.70
2018-12-15T00:26:56.450Z,139.57
2018-12-15T00:29:25.547Z,135.80
2018-12-15T00:31:54.602Z,132.27
2018-12-15T00:34:23.718Z,136.50
2018-12-15T00:36:52.802Z,133.67
2018-12-15T00:39:21.882Z,133.07
2018-12-15T00:41:51.251Z,130.83
2018-12-15T00:44:20.325Z,121.33
2018-12-15T00:46:49.387Z,130.13
2018-12-15T00:49:18.477Z,131.40
2018-12-15T00:51:47.551Z,138.50
2018-12-15T00:54:16.667Z,127.33
2018-12-15T00:56:51.130Z,121.70
2018-12-15T00:59:20.222Z,133.23
2018-12-15T01:01:49.286Z,137.47
2018-12-15T01:04:18.414Z,139.63
2018-12-15T01:06:47.494Z,155.23
2018-12-15T01:09:16.559Z,161.43
2018-12-15T01:11:45.668Z,154.70
2018-12-15T01:14:14.739Z,148.20
2018-12-15T01:16:43.809Z,142.57
2018-12-15T01:19:12.904Z,141.80
2018-12-15T01:21:41.995Z,131.03
2018-12-15T01:24:11.063Z,132.30
2018-12-15T01:26:53.348Z,136.27
2018-12-15T01:29:22.420Z,134.70
2018-12-15T01:31:51.491Z,127.67
2018-12-15T01:34:20.596Z,130.37
2018-12-15T01:36:49.676Z,127.33
2018-12-15T01:39:19.690Z,127.20
2018-12-15T01:41:47.868Z,119.10
2018-12-15T01:44:16.932Z,115.23
2018-12-15T01:46:46.013Z,114.73
2018-12-15T01:49:15.128Z,114.67
2018-12-15T01:51:44.197Z,116.00
2018-12-15T01:54:13.275Z,108.80
2018-12-15T01:56:42.376Z,115.67
2018-12-15T01:59:11.451Z,115.10
2018-12-15T02:01:40.529Z,119.53
2018-12-15T02:04:09.622Z,116.53
2018-12-15T02:06:38.696Z,118.07
2018-12-15T02:09:07.789Z,111.00
2018-12-15T02:11:36.933Z,108.77
2018-12-15T02:14:06.007Z,110.77
2018-12-15T02:16:35.078Z,103.53
2018-12-15T02:19:04.263Z,97.57
2018-12-15T02:21:33.328Z,96.07
2018-12-15T02:24:02.393Z,101.10
2018-12-15T02:26:31.497Z,98.27
2018-12-15T02:29:00.558Z,95.90
2018-12-15T02:31:29.641Z,92.73
2018-12-15T02:33:58.771Z,98.73
2018-12-15T02:36:27.842Z,100.20
2018-12-15T02:38:56.921Z,103.53
2018-12-15T02:41:26.028Z,103.20
2018-12-15T02:43:55.099Z,97.87
2018-12-15T02:46:24.217Z,97.50
2018-12-15T02:48:53.314Z,98.90
2018-12-15T02:51:22.382Z,98.83
2018-12-15T02:53:51.453Z,100.73
2018-12-15T02:56:20.594Z,124.63
2018-12-15T02:58:49.660Z,111.13
2018-12-15T03:01:18.741Z,100.23
2018-12-15T03:03:47.820Z,100.07
2018-12-15T03:06:17.922Z,100.07
2018-12-15T03:08:46.981Z,104.67
2018-12-15T03:11:16.153Z,103.70
2018-12-15T03:13:45.228Z,101.73
2018-12-15T03:16:14.283Z,98.30
2018-12-15T03:18:43.499Z,102.03
2018-12-15T03:21:12.566Z,100.43
2018-12-15T03:23:41.640Z,97.43
2018-12-15T03:26:10.729Z,96.67
2018-12-15T03:28:39.807Z,92.93
2018-12-15T03:31:08.876Z,94.27
2018-12-15T03:33:37.979Z,94.93
2018-12-15T03:36:07.049Z,92.93
2018-12-15T03:38:36.110Z,88.77
2018-12-15T03:41:05.238Z,92.63
2018-12-15T03:43:34.315Z,93.77
2018-12-15T03:46:03.386Z,91.60
2018-12-15T03:48:32.486Z,87.67
2018-12-15T03:51:01.562Z,88.63
2018-12-15T03:53:30.695Z,85.70
2018-12-15T03:56:00.072Z,83.63
2018-12-15T03:58:29.201Z,87.07
2018-12-15T04:00:58.266Z,82.83
2018-12-15T04:03:27.389Z,85.63
2018-12-15T04:05:56.454Z,87.53
2018-12-15T04:08:25.519Z,85.90
2018-12-15T04:10:54.611Z,88.40
2018-12-15T04:13:23.679Z,82.20
2018-12-15T04:15:52.742Z,83.53
2018-12-15T04:18:21.835Z,81.90
2018-12-15T04:20:50.898Z,79.23
2018-12-15T04:23:19.969Z,81.47
2018-12-15T04:25:49.198Z,79.60
2018-12-15T04:28:18.271Z,75.10
2018-12-15T04:30:47.354Z,75.60
2018-12-15T04:33:16.439Z,68.63
2018-12-15T04:35:45.507Z,70.07
2018-12-15T04:38:14.571Z,68.60
2018-12-15T04:40:43.659Z,65.13
2018-12-15T04:43:12.727Z,67.07
2018-12-15T04:45:41.798Z,67.13
2018-12-15T04:48:11.240Z,63.70
2018-12-15T04:50:39.988Z,64.60
2018-12-15T04:53:09.061Z,68.70
2018-12-15T04:55:38.168Z,66.67
2018-12-15T04:58:07.227Z,68.00
2018-12-15T05:00:36.297Z,67.83
2018-12-15T05:03:05.393Z,68.10
2018-12-15T05:05:34.456Z,69.97
2018-12-15T05:08:03.526Z,74.80
2018-12-15T05:10:32.664Z,71.97
2018-12-15T05:13:01.915Z,72.37
2018-12-15T05:15:30.981Z,74.30
2018-12-15T05:18:00.089Z,75.20
2018-12-15T05:20:29.165Z,71.97
2018-12-15T05:22:58.232Z,73.70
2018-12-15T05:25:27.340Z,75.23
2018-12-15T05:27:56.428Z,76.10
2018-12-15T05:30:25.493Z,75.73
2018-12-15T05:32:54.778Z,77.23
2018-12-15T05:35:23.858Z,76.97
2018-12-15T05:37:52.931Z,72.73
2018-12-15T05:40:22.028Z,77.03
2018-12-15T05:42:51.095Z,79.77
2018-12-15T05:45:20.162Z,79.97
2018-12-15T05:47:49.250Z,76.90
2018-12-15T05:50:18.315Z,82.23
2018-12-15T05:52:47.374Z,76.43
2018-12-15T05:55:16.480Z,76.00
2018-12-15T05:57:45.545Z,76.07
2018-12-15T06:00:14.617Z,75.13
2018-12-15T06:02:43.708Z,80.47
2018-12-15T06:05:12.778Z,84.23
2018-12-15T06:07:41.850Z,84.83
2018-12-15T06:10:11.022Z,77.53
2018-12-15T06:12:40.086Z,78.17
2018-12-15T06:15:09.155Z,77.10
2018-12-15T06:17:38.347Z,74.53
2018-12-15T06:20:07.414Z,70.37
2018-12-15T06:22:36.583Z,75.13
2018-12-15T06:25:05.694Z,72.87
2018-12-15T06:27:34.769Z,89.53
2018-12-15T06:30:03.827Z,91.03
2018-12-15T06:32:32.915Z,97.90
2018-12-15T06:35:02.004Z,104.33
2018-12-15T06:37:31.054Z,89.70
2018-12-15T06:40:00.187Z,94.60
2018-12-15T06:42:29.258Z,76.17
2018-12-15T06:44:58.326Z,66.80
2018-12-15T06:47:27.420Z,46.50
2018-12-15T06:49:56.472Z,43.63
2018-12-15T06:52:25.542Z,38.23
2018-12-15T06:54:54.657Z,40.60
2018-12-15T06:57:23.715Z,33.77
2018-12-15T06:59:52.777Z,28.37
2018-12-15T07:02:21.891Z,35.60
2018-12-15T07:04:50.945Z,23.70
2018-12-15T07:07:20.014Z,18.17
2018-12-15T07:09:49.103Z,19.33
2018-12-15T07:12:18.165Z,21.33
2018-12-15T07:14:47.237Z,25.67
2018-12-15T07:17:16.324Z,54.20
2018-12-15T07:19:45.386Z,46.80
2018-12-15T07:22:14.448Z,40.23
2018-12-15T07:24:43.931Z,41.30
2018-12-15T07:27:12.992Z,44.30
2018-12-15T07:29:42.063Z,39.20
2018-12-15T07:32:11.156Z,41.70
2018-12-15T07:34:40.225Z,39.37
2018-12-15T07:37:09.288Z,37.37
2018-12-15T07:39:38.380Z,53.10
2018-12-15T07:42:07.443Z,68.10
2018-12-15T07:44:36.503Z,68.70
2018-12-15T07:47:05.636Z,79.33
2018-12-15T07:49:34.703Z,90.67
2018-12-15T07:52:03.771Z,48.33
2018-12-15T07:54:32.889Z,67.83
2018-12-15T07:57:01.953Z,90.43
2018-12-15T07:59:31.011Z,55.70
2018-12-15T08:02:00.144Z,44.37
2018-12-15T08:04:29.204Z,48.60
2018-12-15T08:07:10.600Z,160.50
2018-12-15T08:09:39.669Z,67.50
2018-12-15T08:12:10.521Z,50.00
2018-12-15T08:14:39.621Z,67.73
2018-12-15T08:17:08.685Z,80.50
2018-12-15T08:19:37.750Z,89.10
2018-12-15T08:22:06.853Z,66.93
2018-12-15T08:24:35.923Z,137.50
2018-12-15T08:27:05.002Z,145.43
2018-12-15T08:29:34.213Z,112.83
2018-12-15T08:32:03.288Z,108.47
2018-12-15T08:34:32.373Z,115.00
2018-12-15T08:37:01.462Z,90.23
2018-12-15T08:39:30.524Z,114.20
2018-12-15T08:41:59.586Z,88.80
2018-12-15T08:44:28.687Z,59.67
2018-12-15T08:46:57.743Z,45.37
2018-12-15T08:49:26.799Z,61.97
2018-12-15T08:51:55.939Z,53.57
2018-12-15T08:54:25.009Z,55.03
2018-12-15T08:56:54.095Z,73.10
2018-12-15T08:59:23.198Z,59.53
2018-12-15T09:01:52.286Z,107.00
2018-12-15T09:04:21.362Z,191.13
2018-12-15T09:06:50.461Z,91.13
2018-12-15T09:09:19.524Z,131.30
2018-12-15T09:11:48.603Z,100.27
2018-12-15T09:14:17.711Z,178.73
2018-12-15T09:16:50.518Z,117.13
2018-12-15T09:19:19.624Z,101.60
2018-12-15T09:21:48.717Z,67.27
2018-12-15T09:24:17.787Z,56.87
2018-12-15T09:26:47.009Z,51.27
2018-12-15T09:29:16.086Z,44.87
2018-12-15T09:31:45.130Z,47.57
2018-12-15T09:34:14.248Z,52.77
2018-12-15T09:36:50.180Z,48.13
2018-12-15T09:39:19.293Z,47.20
2018-12-15T09:41:48.361Z,42.57
2018-12-15T09:44:17.415Z,41.47
2018-12-15T09:46:46.500Z,41.80
2018-12-15T09:49:17.939Z,65.03
2018-12-15T09:51:44.646Z,71.60
2018-12-15T09:54:13.752Z,65.13
2018-12-15T09:56:42.827Z,72.67
2018-12-15T09:59:11.898Z,55.93
2018-12-15T10:01:41.214Z,139.90
2018-12-15T10:04:10.279Z,70.23
2018-12-15T10:06:39.347Z,55.67
2018-12-15T10:09:08.454Z,50.77
2018-12-15T10:11:37.505Z,44.00
2018-12-15T10:14:06.566Z,46.30
2018-12-15T10:16:35.696Z,50.83
2018-12-15T10:19:04.760Z,56.87
2018-12-15T10:21:33.847Z,59.93
2018-12-15T10:24:03.018Z,94.27
2018-12-15T10:26:32.092Z,80.90
2018-12-15T10:29:01.160Z,94.17
2018-12-15T10:34:14.947Z,54.80
2018-12-15T10:36:47.817Z,63.87
2018-12-15T10:39:16.884Z,71.97
2018-12-15T10:41:45.949Z,70.83
2018-12-15T10:44:15.030Z,46.67
2018-12-15T10:46:44.089Z,62.00
2018-12-15T10:49:13.157Z,77.33
2018-12-15T10:51:42.283Z,71.67
2018-12-15T10:54:11.355Z,57.10
2018-12-15T10:56:44.307Z,45.30
2018-12-15T10:59:13.373Z,54.17
2018-12-15T11:01:42.441Z,67.80
2018-12-15T11:04:11.537Z,62.73
2018-12-15T11:06:40.647Z,76.33
2018-12-15T11:09:09.706Z,58.47
2018-12-15T11:11:38.805Z,74.17
2018-12-15T11:14:07.874Z,69.13
2018-12-15T11:19:37.180Z,82.77
2018-12-15T11:22:03.640Z,76.10
2018-12-15T11:24:32.704Z,48.80
2018-12-15T11:27:01.765Z,85.00
2018-12-15T11:29:30.885Z,69.37
2018-12-15T11:31:59.951Z,53.83
2018-12-15T11:34:29.026Z,70.83
2018-12-15T11:36:58.129Z,78.43
2018-12-15T11:39:27.205Z,69.80
2018-12-15T11:41:56.267Z,74.57
2018-12-15T11:44:25.363Z,83.30
2018-12-15T11:46:54.423Z,59.70
2018-12-15T11:49:23.475Z,46.13
2018-12-15T11:51:52.557Z,49.63
2018-12-15T11:54:21.630Z,45.00
2018-12-15T11:56:50.686Z,49.47
2018-12-15T11:59:19.798Z,44.93
2018-12-15T12:01:48.864Z,39.50
2018-12-15T12:04:17.916Z,42.50
2018-12-15T12:06:47.002Z,42.97
2018-12-15T12:09:16.066Z,45.57
2018-12-15T12:11:45.129Z,44.37
2018-12-15T12:14:14.225Z,48.43
2018-12-15T12:16:43.340Z,71.47
2018-12-15T12:19:12.353Z,78.13
2018-12-15T12:21:41.486Z,57.23
2018-12-15T12:24:10.557Z,44.50
2018-12-15T12:26:39.620Z,40.47
2018-12-15T12:29:08.700Z,43.67
2018-12-15T12:31:37.755Z,44.93
2018-12-15T12:34:06.806Z,51.50
2018-12-15T12:36:35.891Z,55.37
2018-12-15T12:39:04.962Z,61.10
2018-12-15T12:41:34.026Z,64.37
2018-12-15T12:44:03.153Z,57.30
2018-12-15T12:46:32.215Z,41.80
2018-12-15T12:49:01.271Z,36.50
2018-12-15T12:51:30.367Z,29.80
2018-12-15T12:53:59.432Z,30.70
2018-12-15T12:56:28.494Z,33.60
2018-12-15T12:58:57.578Z,44.20
2018-12-15T13:01:26.632Z,44.53
2018-12-15T13:03:55.703Z,88.20
2018-12-15T13:06:24.818Z,119.60
2018-12-15T13:08:53.900Z,158.20
2018-12-15T13:11:22.977Z,101.90
2018-12-15T13:13:52.094Z,126.73
2018-12-15T13:16:21.179Z,143.60
2018-12-15T13:18:50.250Z,131.23
2018-12-15T13:21:19.379Z,169.93
2018-12-15T13:23:48.458Z,102.93
2018-12-15T13:26:17.538Z,171.23
2018-12-15T13:28:46.946Z,84.13
2018-12-15T13:31:16.014Z,79.50
2018-12-15T13:33:45.117Z,87.63
2018-12-15T13:36:14.210Z,79.83
2018-12-15T13:38:43.290Z,90.23
2018-12-15T13:41:12.355Z,101.23
2018-12-15T13:43:41.464Z,90.67
2018-12-15T13:46:10.540Z,95.87
2018-12-15T13:48:39.613Z,149.77
2018-12-15T13:51:08.761Z,108.77
2018-12-15T13:53:37.835Z,119.90
2018-12-15T13:56:23.613Z,132.03
2018-12-15T13:58:52.687Z,102.53
2018-12-15T14:01:21.770Z,76.67
2018-12-15T14:03:50.890Z,80.40
2018-12-15T14:06:19.952Z,112.83
2018-12-15T14:08:49.024Z,98.73
2018-12-15T14:11:18.126Z,104.13
2018-12-15T14:13:47.198Z,66.70
2018-12-15T14:16:28.647Z,133.87
2018-12-15T14:18:57.715Z,95.67
2018-12-15T14:21:26.775Z,83.73
2018-12-15T14:23:55.880Z,89.37
2018-12-15T14:26:24.956Z,97.27
2018-12-15T14:28:54.047Z,85.43
2018-12-15T14:31:23.243Z,84.80
2018-12-15T14:33:52.423Z,142.60
2018-12-15T14:36:21.514Z,135.40
2018-12-15T14:38:50.608Z,78.37
2018-12-15T14:41:19.670Z,74.73
2018-12-15T14:43:48.735Z,88.63
2018-12-15T14:46:17.847Z,322.27
2018-12-15T14:48:46.923Z,161.17
2018-12-15T14:51:15.995Z,273.23
2018-12-15T14:53:45.133Z,338.87
2018-12-15T14:56:14.204Z,313.60
2018-12-15T14:58:43.300Z,371.30
2018-12-15T15:01:12.497Z,318.70
2018-12-15T15:03:41.578Z,332.03
2018-12-15T15:06:15.332Z,229.50
2018-12-15T15:08:44.400Z,230.70
2018-12-15T15:11:13.482Z,203.83
2018-12-15T15:13:42.616Z,206.77
2018-12-15T15:16:26.472Z,223.77
2018-12-15T15:18:55.806Z,171.30
2018-12-15T15:21:24.873Z,131.87
2018-12-15T15:23:53.933Z,98.23
2018-12-15T15:26:23.020Z,96.73
2018-12-15T15:28:52.109Z,129.10
2018-12-15T15:31:21.184Z,112.53
2018-12-15T15:33:50.291Z,94.17
2018-12-15T15:36:24.075Z,90.70
2018-12-15T15:38:53.169Z,92.27
2018-12-15T15:41:22.243Z,110.80
2018-12-15T15:43:51.315Z,126.70
2018-12-15T15:46:20.407Z,160.17
2018-12-15T15:48:49.483Z,140.97
2018-12-15T15:51:18.557Z,132.70
2018-12-15T15:53:47.692Z,132.73
2018-12-15T15:56:16.773Z,162.00
2018-12-15T15:58:45.847Z,131.60
2018-12-15T16:01:14.955Z,177.83
2018-12-15T16:03:44.028Z,144.83
2018-12-15T16:06:26.128Z,120.87
2018-12-15T16:08:55.197Z,104.87
2018-12-15T16:11:24.286Z,107.67
2018-12-15T16:13:53.415Z,109.87
2018-12-15T16:19:15.889Z,129.60
2018-12-15T16:21:44.969Z,161.47
2018-12-15T16:24:14.045Z,132.10
2018-12-15T16:26:43.226Z,96.93
2018-12-15T16:29:12.304Z,70.80
2018-12-15T16:31:41.381Z,73.37
2018-12-15T16:34:10.505Z,64.57
2018-12-15T16:36:39.582Z,70.83
2018-12-15T16:39:08.656Z,70.60
2018-12-15T16:41:42.149Z,62.47
2018-12-15T16:44:06.811Z,67.70
2018-12-15T16:46:35.882Z,54.83
2018-12-15T16:49:06.011Z,41.17
2018-12-15T16:51:34.062Z,39.17
2018-12-15T16:54:03.110Z,35.83
2018-12-15T16:56:32.250Z,48.27
2018-12-15T16:59:01.309Z,47.07
2018-12-15T17:01:30.385Z,41.20
2018-12-15T17:03:59.480Z,40.70
2018-12-15T17:06:32.382Z,40.93
2018-12-15T17:09:01.458Z,34.70
2018-12-15T17:11:30.533Z,32.80
2018-12-15T17:13:59.604Z,40.10
2018-12-15T17:16:28.734Z,53.27
2018-12-15T17:18:57.797Z,42.03
2018-12-15T17:21:26.841Z,59.13
2018-12-15T17:23:55.959Z,42.70
2018-12-15T17:26:29.859Z,41.10
2018-12-15T17:28:58.941Z,38.73
2018-12-15T17:31:28.012Z,43.50
2018-12-15T17:33:57.071Z,34.43
2018-12-15T17:36:49.400Z,34.17
2018-12-15T17:39:18.454Z,35.60
2018-12-15T17:41:47.520Z,31.87
2018-12-15T17:44:16.640Z,27.13
2018-12-15T17:46:45.697Z,26.33
2018-12-15T17:49:14.796Z,36.00
2018-12-15T17:51:43.949Z,35.53
2018-12-15T17:54:13.041Z,31.13
2018-12-15T17:57:03.676Z,45.30
2018-12-15T17:59:32.740Z,65.10
2018-12-15T18:02:01.807Z,63.00
2018-12-15T18:04:30.936Z,49.13
2018-12-15T18:07:00.007Z,68.23
2018-12-15T18:09:29.084Z,47.07
2018-12-15T18:11:58.185Z,110.37
2018-12-15T18:14:27.263Z,97.93
2018-12-15T18:16:56.341Z,56.20
2018-12-15T18:19:25.555Z,57.57
2018-12-15T18:21:54.637Z,36.63
2018-12-15T18:24:23.710Z,45.30
2018-12-15T18:26:52.824Z,41.53
2018-12-15T18:29:21.898Z,57.70
2018-12-15T18:31:50.964Z,61.47
2018-12-15T18:34:20.054Z,75.70
2018-12-15T18:36:49.123Z,49.53
2018-12-15T18:39:18.196Z,81.63
2018-12-15T18:41:48.977Z,48.27
2018-12-15T18:44:18.037Z,78.37
2018-12-15T18:46:47.108Z,96.93
2018-12-15T18:49:16.208Z,56.60
2018-12-15T18:51:45.296Z,43.67
2018-12-15T18:54:14.362Z,61.60
2018-12-15T18:56:43.448Z,81.07
2018-12-15T18:59:12.523Z,73.60
2018-12-15T19:01:41.575Z,68.13
2018-12-15T19:04:10.694Z,70.33
2018-12-15T19:06:39.750Z,71.20
2018-12-15T19:09:08.816Z,101.33
2018-12-15T19:11:37.917Z,105.17
2018-12-15T19:14:07.000Z,95.13
2018-12-15T19:16:36.104Z,87.60
2018-12-15T19:19:05.213Z,91.33
2018-12-15T19:21:34.300Z,51.17
2018-12-15T19:24:03.359Z,50.53
2018-12-15T19:26:34.471Z,101.57
2018-12-15T19:29:03.538Z,68.17
2018-12-15T19:31:32.611Z,37.70
2018-12-15T19:34:01.703Z,38.27
2018-12-15T19:36:30.762Z,46.17
2018-12-15T19:38:59.828Z,53.37
2018-12-15T19:41:28.930Z,52.73
2018-12-15T19:43:58.000Z,65.67
2018-12-15T19:46:32.962Z,56.80
2018-12-15T19:49:02.026Z,48.03
2018-12-15T19:51:31.091Z,46.50
2018-12-15T19:54:00.174Z,79.13
2018-12-15T19:56:29.245Z,72.97
2018-12-15T19:58:58.313Z,66.90
2018-12-15T20:01:27.489Z,74.13
2018-12-15T20:03:56.553Z,104.97
2018-12-15T20:06:25.655Z,102.77
2018-12-15T20:08:54.769Z,99.43
2018-12-15T20:11:23.881Z,63.37
2018-12-15T20:13:52.919Z,67.53
2018-12-15T20:16:22.015Z,85.07
2018-12-15T20:18:51.090Z,69.97
2018-12-15T20:21:20.387Z,86.80
2018-12-15T20:23:49.350Z,86.03
2018-12-15T20:26:18.422Z,71.10
2018-12-15T20:28:47.485Z,74.43
2018-12-15T20:31:16.641Z,62.03
2018-12-15T20:33:45.722Z,71.43
2018-12-15T20:36:14.823Z,90.53
2018-12-15T20:38:43.994Z,63.07
2018-12-15T20:41:13.065Z,69.30
2018-12-15T20:43:42.375Z,50.13
2018-12-15T20:46:11.478Z,56.97
2018-12-15T20:48:40.545Z,54.33
2018-12-15T20:51:09.609Z,52.53
2018-12-15T20:53:38.716Z,44.07
2018-12-15T20:56:07.779Z,63.03
2018-12-15T20:58:36.846Z,43.07
2018-12-15T21:01:05.944Z,30.10
2018-12-15T21:03:35.015Z,31.30
2018-12-15T21:06:04.088Z,29.40
2018-12-15T21:08:34.593Z,34.47
2018-12-15T21:11:02.238Z,31.37
2018-12-15T21:13:31.305Z,29.87
2018-12-15T21:16:00.455Z,30.37
2018-12-15T21:18:29.457Z,29.70
2018-12-15T21:20:58.514Z,30.27
2018-12-15T21:23:27.608Z,33.47
2018-12-15T21:25:56.679Z,35.30
2018-12-15T21:28:25.759Z,36.50
2018-12-15T21:30:54.839Z,31.30
2018-12-15T21:33:23.902Z,36.83
2018-12-15T21:35:52.968Z,48.23
2018-12-15T21:38:22.071Z,34.40
2018-12-15T21:40:51.144Z,29.93
2018-12-15T21:43:20.218Z,29.40
2018-12-15T21:45:49.395Z,31.90
2018-12-15T21:48:18.464Z,31.00
2018-12-15T21:50:47.532Z,30.03
2018-12-15T21:53:16.628Z,30.20
2018-12-15T21:55:45.709Z,31.33
2018-12-15T21:58:14.771Z,33.03
2018-12-15T22:00:43.887Z,35.63
2018-12-15T22:03:12.968Z,34.63
2018-12-15T22:05:42.028Z,30.17
2018-12-15T22:08:11.126Z,32.40
2018-12-15T22:10:40.188Z,31.77
2018-12-15T22:13:09.252Z,31.47
2018-12-15T22:15:38.339Z,34.90
2018-12-15T22:18:07.405Z,33.00
2018-12-15T22:20:36.467Z,32.20
2018-12-15T22:23:05.593Z,33.17
2018-12-15T22:25:34.636Z,33.33
2018-12-15T22:28:03.704Z,34.23
2018-12-15T22:30:32.785Z,32.53
2018-12-15T22:33:01.846Z,33.60
2018-12-15T22:35:30.902Z,31.57
2018-12-15T22:37:59.985Z,31.60
2018-12-15T22:40:29.050Z,32.50
2018-12-15T22:42:58.109Z,31.00
2018-12-15T22:45:27.208Z,32.00
2018-12-15T22:47:56.272Z,31.80
2018-12-15T22:50:25.339Z,33.57
2018-12-15T22:52:54.523Z,32.73
2018-12-15T22:55:23.590Z,33.97
2018-12-15T22:57:52.652Z,33.20
2018-12-15T23:00:21.748Z,32.37
2018-12-15T23:02:50.804Z,32.77
2018-12-15T23:05:19.876Z,37.60
2018-12-15T23:07:48.969Z,36.57
2018-12-15T23:10:18.024Z,33.27
2018-12-15T23:12:47.093Z,35.97
2018-12-15T23:15:16.229Z,39.17
2018-12-15T23:17:45.285Z,39.30
2018-12-15T23:20:14.352Z,41.60
2018-12-15T23:22:43.426Z,41.53
2018-12-15T23:25:12.468Z,37.73
2018-12-15T23:27:41.536Z,38.80
2018-12-15T23:30:10.634Z,41.90
2018-12-15T23:32:39.696Z,42.43
2018-12-15T23:35:08.752Z,40.40
2018-12-15T23:37:37.863Z,38.67
2018-12-15T23:40:06.973Z,37.37
2018-12-15T23:42:36.054Z,37.70
2018-12-15T23:45:05.144Z,38.67
2018-12-15T23:47:34.194Z,36.37
2018-12-15T23:50:03.247Z,38.53
2018-12-15T23:52:32.453Z,38.27
2018-12-15T23:55:01.533Z,37.53
2018-12-15T23:57:30.584Z,40.07
2018-12-15T23:59:59.682Z,39.80
